This site, now in its 15th season, is a labour of love and fun from one of Ottawa's most avid time trialists and number crunchers. It adheres to and is permitted by the laws of Canada, promotes the objectives of every bicycle club whose results are shown, and is donated free of charge by myself for your enjoyment and usage. If you would like results from series you ride in to be shown here, give me (celia@drmath.ca) a shout!


Index Page
ATT OTT WTT AATT CFCTT VVVTT
Help resultformat:
Case-sensitive

OBC Open TT Series - 1993-Apr-29 - 15km (Rockliffe Pkwy) (EvtFactor = 0.8579)

Weather (18:00): Cloudy. Temp.: 20.6C, Humidity: 27%, DewPoint: 1.1C, Wind: SE 7km/h, Pressure: 100.41kPa, Visibility: 32.2km.
Weather (19:00): Cloudy. Temp.: 19.7C, Humidity: 30%, DewPoint: 1.7C, Wind: E 7km/h, Pressure: 100.37kPa, Visibility: 32.2km.
Weather (20:00): Cloudy. Temp.: 18.7C, Humidity: 30%, DewPoint: 0.9C, Wind: ESE 7km/h, Pressure: 100.37kPa, Visibility: 32.2km.

Send photos with description (when/where/what) of yourself on or off of bike to celia@drmath.ca

 
 

BESTS?
 
1 Redding, Neil OBC 20:43 43.443 1/66 OVAM 1/14  
2 Westwood, Chris --- 20:56 42.994 2/66 OSEM 1/25  
3 Georgas, Chris OBC 21:34 41.731 3/66 OVBM 1/10  
4 Boudreau, Marc --- 21:42 41.475 4/66 OSEM 2/25  
A 5 Arts, Michael OBC 21:45 41.379 5/66 OCAM 1/2 1.9558
6 Simpson, Bob OBC 21:52 41.159 6/66 OVBM 2/10 1.7566
7 Statchuk, Craig OBC 21:53 41.127 7/66 OVAM 2/14 1.1385
8 Burge, Craig  --- 22:00 40.909 8/66 OSEM 3/25 1.2608
9 St-Amour, Pierre OBC 22:01 40.878 9/66 OVAM 3/14 1.1203
10 Hinz, Richard OBC 22:02 40.847 10/66 OVAM 4/14 1.2030
11 MacDonald, Ryan OBC 22:11 40.571 11/66 OSEM 4/25 1.2690
12 Bachman, Paul --- 22:18 40.359 12/66 OSEM 5/25 1.2648
13 Moerman, Bram  OBC 22:21 40.268 13/66 OVBM 3/10 1.1233
14 Fairhead, Denis OBC 22:22 40.238 14/66 OVAM 5/14  
15 Bisson, Pascal OBC 22:28 40.059 15/66 OSEM 6/25 1.2215
16 Moore, Mike --- 22:34 39.882 16/66 OSEM 7/25 1.1511
17 Campbell, Colin  OBC 22:42 39.648 17/66 OSEM 8/25 1.2753
18 Reinisch, Stephen OBC 22:48 39.474 18/66 OSEM 9/25  
19 Beasley, Graham --- 22:53 39.330 19/66 OVBM 4/10 1.2123
20 Buffa, Alex  OBC 22:54 39.301 20/66 OSEM 10/25  
21 Mahoney, Keith OBC 22:55 39.273 21/66 OSEM 11/25  
22 Barton, Ron OBC 23:01 39.102 22/66 OVAM 6/14 1.4359
23 Georgas, Jim OBC 23:10 38.849 23/66 XXM 1/4  
24 Georgekish-Watt, Yanik --- 23:18 38.627 24/66 OSEM 12/25  
25 Higgins, Bryan OBC 23:22 38.516 25/66 OSEM 13/25 1.1526
Pomeroy, Steve OBC 23:22 38.516 25/66 OVAM 7/14  
27 Budd, Daniel OBC 23:23 38.489 27/66 OSEM 14/25 1.4887
28 Montpetit, Stephane OBC 23:26 38.407 28/66 OSEM 15/25 1.4057
29 Gould, Rob OBC 23:30 38.298 29/66 OVAM 8/14  
30 Bloom, D'Arcy --- 23:43 37.948 30/66 OSEM 16/25 1.0845
31 Jensen, Prapti OBC 23:47 37.842 31/66 OSEF 1/5  
32 Stewart, Ian --- 23:48 37.815 32/66 OVAM 9/14  
Vermander, Eric --- 23:48 37.815 32/66 OSEM 17/25  
34 Bachman, Mike --- 23:50 37.762 34/66 OVBM 5/10 1.1221
35 Lalonde, Remi --- 24:15 37.113 35/66 OJUM 1/2  
36 Paulin, Pierre OBC 24:18 37.037 36/66 OSEM 18/25  
37 Chiarelli, Marc --- 24:34 36.635 37/66 OSEM 19/25  
38 Ménard, Monique OBC 24:40 36.486 38/66 OSEF 2/5 1.2516
39 Gilchrist, Ryan  OBC 24:41 36.462 39/66 OSEM 20/25  
40 Smallwood, Steve OBC 24:43 36.413 40/66 OVAM 10/14 1.0789
41 Payette, Erin --- 24:44 36.388 41/66 OSEF 3/5 1.1706
42 Vasku, Herb OBC 24:48 36.290 42/66 OVBM 6/10 1.1836
43 Hicks, Terry OBC 24:50 36.242 43/66 OVAM 11/14  
44 Polischuk, Susan --- 25:08 35.809 44/66 OSEF 4/5  
45 McInnis, Celia  OBC 25:15 35.644 45/66 OVAF 1/3 1.2092
46 Hurst, Mike --- 25:19 35.550 46/66 OSEM 21/25  
47 Boissonneault, France OBC 25:20 35.526 47/66 OSEF 5/5  
48 Hartry, Corey --- 25:29 35.317 48/66 OCAM 2/2  
49 DeVidi, Robert  OBC 25:31 35.271 49/66 OSEM 22/25 1.0558
50 Pike, Richard OBC 25:42 35.019 50/66 OVBM 7/10 1.6387
51 Hope, Walter --- 26:26 34.048 51/66 OVAM 12/14 1.2644
52 Ford, John --- 26:33 33.898 52/66 OVAM 13/14  
53 Chen, Jonathan --- 27:02 33.292 53/66 OSEM 23/25 1.3194
54 Hamilton, Dale --- 27:20 32.927 54/66 OVAF 2/3  
55 Ajersch, Mary  OBC 27:40 32.530 55/66 OVBF 1/1 1.1143
56 Hurst, Ron OBC 27:44 32.452 56/66 OVBM 8/10 1.4102
57 Reed, Mark --- 27:55 32.239 57/66 XXM 2/4  
58 Labelle, Denis OBC 28:20 31.765 58/66 XXM 3/4 1.5000
59 Montserrat, Fabienne OBC 28:48 31.250 59/66 OVAF 3/3  
60 Winter, Michael OBC 28:57 31.088 60/66 OVBM 9/10 1.4213
61 Fortey, Brian --- 29:10 30.857 61/66 OJUM 2/2  
62 Leblanc, Rick --- 30:25 29.589 62/66 XXM 4/4  
63 Pstross, Nick OBC 30:39 29.364 63/66 OVBM 10/10 1.5105
64 Malouin, Paul --- 31:10 28.877 64/66 OVAM 14/14  
65 Heffler, Paul OBC 34:19 26.226 65/66 OSEM 24/25  
66 Logan, Doug --- 43:14 20.817 66/66 OSEM 25/25  
 
Average Speed of all of the above 66 finishes (990km in 27:25:21):36.102
>>>Average of the Average Speeds for these 66 finishes36.678<<<
 

The number of data records shown above is 66
The server processing of your query took: 0 wallclock secs ( 0.08 usr + 0.00 sys = 0.08 CPU)

Thanks to our Helpers: Norm Cowan, Marc Roy, Mike Martignago, Jim Glover, Les Humphreys.

     


Apr 9 (Good Friday) Apr 15 Apr 22 (cancelled) Apr 27
  Apr 29  
May 4 (10km) May 6 May 11 May 11 (10km) May 13 (22km) May 16 (40km) May 18 May 18 (10km) May 20 May 25 May 25 (10km) May 27 (38km) May 30 (40km)
Jun 1 Jun 3 Jun 8 Jun 10 (22km) Jun 15 Jun 17 Jun 22 Jun 22 Jun 24 (38km) Jun 25 Jun 27 (40km/80km) Jun 29 Jun 29 Jun 30
Jul 6 Jul 6 Jul 8 Jul 13 Jul 13 Jul 15 (38km) Jul 20 Jul 20 Jul 22 Jul 25 (80km) Jul 27 Jul 29 (22km)
Aug 3 Aug 3 Aug 5 Aug 7 (38km) Aug 10 Aug 10 Aug 12 Aug 15 (40km/80km) Aug 17 Aug 19 Aug 21 (22km) Aug 24 Aug 24 Aug 26 Aug 29 (40km) Aug 31 (Invitational)
Sep 2 Sep 7 Sep 9 Sep 14 Sep 16 Sep 25 (40km)

OTT Rankings
Best       Best by category
WTT Rankings for OBC Members
5 Best 15km     5 Best 15km by category
OBC Member Best Three 15km Rankings
Overall     by category
OBC BAR Ranking
Overall     by category     Rider "Consistency-Graph"
ABC BAR Ranking
Overall     by category     Rider "Consistency-Graph"
Other years
TT Calculator All TT People All TT events
ABC Home VVV Home
CKAP GOLD MEDAL
Other Links

Please send your comments and suggestions to: Celia McInnis
Copyright © 1998-2011 Celia McInnis. All rights reserved. Links are welcomed.